createdAt,value
2023-04-13T00:02:23.952Z,62.71
2023-04-13T00:04:51.256Z,62.78
2023-04-13T00:07:19.046Z,62.62
2023-04-13T00:09:47.542Z,62.48
2023-04-13T00:12:15.920Z,62.67
2023-04-13T00:14:44.015Z,62.59
2023-04-13T00:17:11.096Z,62.46
2023-04-13T00:19:37.980Z,62.80
2023-04-13T00:22:04.962Z,62.31
2023-04-13T00:24:33.594Z,62.47
2023-04-13T00:27:01.283Z,62.15
2023-04-13T00:29:28.101Z,62.41
2023-04-13T00:31:54.853Z,62.66
2023-04-13T00:34:21.680Z,62.85
2023-04-13T00:36:49.259Z,62.80
2023-04-13T00:39:16.143Z,62.85
2023-04-13T00:41:43.109Z,62.70
2023-04-13T00:44:10.025Z,62.65
2023-04-13T00:46:36.873Z,62.98
2023-04-13T00:49:03.934Z,62.90
2023-04-13T00:51:30.798Z,63.08
2023-04-13T00:53:59.451Z,63.16
2023-04-13T00:56:27.273Z,63.25
2023-04-13T00:58:56.329Z,63.07
2023-04-13T01:01:23.362Z,63.34
2023-04-13T01:03:53.402Z,63.32
2023-04-13T01:06:33.710Z,63.48
2023-04-13T01:09:22.571Z,63.21
2023-04-13T01:12:00.584Z,63.56
2023-04-13T01:14:56.768Z,63.48
2023-04-13T01:17:28.705Z,63.99
2023-04-13T01:20:11.984Z,63.62
2023-04-13T01:22:45.502Z,63.93
2023-04-13T01:25:45.789Z,64.22
2023-04-13T01:28:16.657Z,63.81
2023-04-13T01:30:44.639Z,63.92
2023-04-13T01:33:12.869Z,63.80
2023-04-13T01:35:40.005Z,63.82
2023-04-13T01:38:07.526Z,63.57
2023-04-13T01:40:40.471Z,63.74
2023-04-13T01:43:10.698Z,63.76
2023-04-13T01:46:04.720Z,63.87
2023-04-13T01:48:43.192Z,63.87
2023-04-13T01:51:25.209Z,64.03
2023-04-13T01:54:13.951Z,64.12
2023-04-13T01:56:41.570Z,64.07
2023-04-13T01:59:09.391Z,64.11
2023-04-13T02:01:38.716Z,64.39
2023-04-13T02:04:07.632Z,64.25
2023-04-13T02:06:34.659Z,64.47
2023-04-13T02:09:01.625Z,64.42
2023-04-13T02:11:28.443Z,64.61
2023-04-13T02:13:57.504Z,64.62
2023-04-13T02:16:25.171Z,64.84
2023-04-13T02:18:51.978Z,64.81
2023-04-13T02:21:18.760Z,65.12
2023-04-13T02:23:45.906Z,65.20
2023-04-13T02:26:14.155Z,64.80
2023-04-13T02:28:41.648Z,64.89
2023-04-13T02:31:08.456Z,64.95
2023-04-13T02:33:35.599Z,65.15
2023-04-13T02:36:03.882Z,64.94
2023-04-13T02:38:32.039Z,64.80
2023-04-13T02:41:01.197Z,64.92
2023-04-13T02:43:28.944Z,65.13
2023-04-13T02:45:56.868Z,65.18
2023-04-13T02:48:24.043Z,64.87
2023-04-13T02:50:51.936Z,65.22
2023-04-13T02:53:18.799Z,65.02
2023-04-13T02:55:45.903Z,65.08
2023-04-13T02:58:12.680Z,65.35
2023-04-13T03:00:39.717Z,65.17
2023-04-13T03:03:06.867Z,65.33
2023-04-13T03:05:33.939Z,65.12
2023-04-13T03:08:00.891Z,65.23
2023-04-13T03:10:27.743Z,65.26
2023-04-13T03:12:54.755Z,65.17
2023-04-13T03:15:21.748Z,64.84
2023-04-13T03:17:48.692Z,64.90
2023-04-13T03:20:16.883Z,65.34
2023-04-13T03:22:45.188Z,65.33
2023-04-13T03:25:12.496Z,65.28
2023-04-13T03:27:39.300Z,65.22
2023-04-13T03:30:07.578Z,65.38
2023-04-13T03:32:34.546Z,65.35
2023-04-13T03:35:01.365Z,65.36
2023-04-13T03:37:30.236Z,65.36
2023-04-13T03:39:58.773Z,65.26
2023-04-13T03:42:25.584Z,65.03
2023-04-13T03:44:52.997Z,65.35
2023-04-13T03:47:19.903Z,65.33
2023-04-13T03:49:47.040Z,65.55
2023-04-13T03:52:14.064Z,65.54
2023-04-13T03:54:40.857Z,65.68
2023-04-13T03:57:07.791Z,65.55
2023-04-13T03:59:34.623Z,65.36
2023-04-13T04:02:02.867Z,65.34
2023-04-13T04:04:29.953Z,65.43
2023-04-13T04:06:57.892Z,65.45
2023-04-13T04:09:25.405Z,65.43
2023-04-13T04:11:52.214Z,65.53
2023-04-13T04:14:19.473Z,65.62
2023-04-13T04:16:46.461Z,65.63
2023-04-13T04:19:13.259Z,65.64
2023-04-13T04:21:44.532Z,65.78
2023-04-13T04:24:12.410Z,65.89
2023-04-13T04:26:40.191Z,65.88
2023-04-13T04:29:08.784Z,65.64
2023-04-13T04:31:37.452Z,65.94
2023-04-13T04:34:04.751Z,65.83
2023-04-13T04:36:31.513Z,65.66
2023-04-13T04:39:01.965Z,66.07
2023-04-13T04:41:29.078Z,66.02
2023-04-13T04:43:56.808Z,66.34
2023-04-13T04:46:25.827Z,65.95
2023-04-13T04:48:54.614Z,66.17
2023-04-13T04:51:24.834Z,66.26
2023-04-13T04:53:52.950Z,66.49
2023-04-13T04:56:21.186Z,66.70
2023-04-13T04:58:47.960Z,66.69
2023-04-13T05:01:17.968Z,66.51
2023-04-13T05:03:44.949Z,66.86
2023-04-13T05:06:12.296Z,66.58
2023-04-13T05:08:39.084Z,66.78
2023-04-13T05:11:07.241Z,66.59
2023-04-13T05:13:34.088Z,66.39
2023-04-13T05:16:00.904Z,66.56
2023-04-13T05:18:34.971Z,66.24
2023-04-13T05:21:01.700Z,66.29
2023-04-13T05:23:28.560Z,66.35
2023-04-13T05:25:56.719Z,66.37
2023-04-13T05:28:23.523Z,66.42
2023-04-13T05:30:50.308Z,66.37
2023-04-13T05:33:17.088Z,66.47
2023-04-13T05:35:44.050Z,66.13
2023-04-13T05:38:10.850Z,66.32
2023-04-13T05:40:37.628Z,66.22
2023-04-13T05:43:05.210Z,66.38
2023-04-13T05:45:32.988Z,66.44
2023-04-13T05:47:59.867Z,66.14
2023-04-13T05:50:28.380Z,66.32
2023-04-13T05:52:55.883Z,66.42
2023-04-13T05:55:30.026Z,66.33
2023-04-13T05:57:56.898Z,67.26
2023-04-13T06:00:23.838Z,67.49
2023-04-13T06:02:50.781Z,67.24
2023-04-13T06:05:18.652Z,66.62
2023-04-13T06:07:48.912Z,66.25
2023-04-13T06:10:17.891Z,65.75
2023-04-13T06:12:48.294Z,65.39
2023-04-13T06:15:15.548Z,65.71
2023-04-13T06:17:42.332Z,65.46
2023-04-13T06:20:10.808Z,65.90
2023-04-13T06:22:37.600Z,65.65
2023-04-13T06:25:04.870Z,65.25
2023-04-13T06:27:33.625Z,64.04
2023-04-13T06:30:01.143Z,63.08
2023-04-13T06:32:28.005Z,62.24
2023-04-13T06:34:55.841Z,61.28
2023-04-13T06:37:23.542Z,59.94
2023-04-13T06:39:50.422Z,59.07
2023-04-13T06:42:18.930Z,58.58
2023-04-13T06:44:45.846Z,57.08
2023-04-13T06:47:12.641Z,56.13
2023-04-13T06:49:39.417Z,55.72
2023-04-13T06:52:06.293Z,55.36
2023-04-13T06:54:35.725Z,55.02
2023-04-13T06:57:02.756Z,55.15
2023-04-13T06:59:29.554Z,55.70
2023-04-13T07:01:56.831Z,55.93
2023-04-13T07:04:26.481Z,56.65
2023-04-13T07:06:54.998Z,57.12
2023-04-13T07:09:21.760Z,57.51
2023-04-13T07:11:48.606Z,58.05
2023-04-13T07:14:15.453Z,58.54
2023-04-13T07:16:42.244Z,58.53
2023-04-13T07:19:09.065Z,58.77
2023-04-13T07:21:35.891Z,59.50
2023-04-13T07:24:02.719Z,59.88
2023-04-13T07:26:29.458Z,59.83
2023-04-13T07:28:56.398Z,60.21
2023-04-13T07:31:23.626Z,60.43
2023-04-13T07:33:50.696Z,60.27
2023-04-13T07:36:17.866Z,60.53
2023-04-13T07:38:44.697Z,60.32
2023-04-13T07:41:11.574Z,60.48
2023-04-13T07:43:38.379Z,60.24
2023-04-13T07:46:12.580Z,60.48
2023-04-13T07:48:43.207Z,61.84
2023-04-13T07:51:18.629Z,61.31
2023-04-13T07:53:45.419Z,61.44
2023-04-13T07:56:12.400Z,61.04
2023-04-13T07:58:39.184Z,61.09
2023-04-13T08:01:06.983Z,60.88
2023-04-13T08:03:35.232Z,61.12
2023-04-13T08:06:06.272Z,61.17
2023-04-13T08:08:33.706Z,61.00
2023-04-13T08:11:01.331Z,60.97
2023-04-13T08:13:29.964Z,60.89
2023-04-13T08:15:57.684Z,60.90
2023-04-13T08:18:24.753Z,61.00
2023-04-13T08:20:51.541Z,60.94
2023-04-13T08:23:18.342Z,61.00
2023-04-13T08:25:45.383Z,60.79
2023-04-13T08:28:13.176Z,60.92
2023-04-13T08:30:41.010Z,60.86
2023-04-13T08:33:08.604Z,60.73
2023-04-13T08:35:39.690Z,60.79
2023-04-13T08:38:09.226Z,60.88
2023-04-13T08:40:40.694Z,60.86
2023-04-13T08:43:07.684Z,60.88
2023-04-13T08:45:41.539Z,60.68
2023-04-13T08:48:13.535Z,60.73
2023-04-13T08:50:40.491Z,60.89
2023-04-13T08:53:07.342Z,60.77
2023-04-13T08:55:34.314Z,60.80
2023-04-13T08:58:04.156Z,60.59
2023-04-13T09:00:31.171Z,61.12
2023-04-13T09:03:05.356Z,61.60
2023-04-13T09:05:38.983Z,61.61
2023-04-13T09:08:08.529Z,60.88
2023-04-13T09:10:35.613Z,60.51
2023-04-13T09:13:03.097Z,60.70
2023-04-13T09:15:31.724Z,60.23
2023-04-13T09:18:10.465Z,59.94
2023-04-13T09:20:43.499Z,59.56
2023-04-13T09:23:15.900Z,58.94
2023-04-13T09:25:45.266Z,58.42
2023-04-13T09:28:19.472Z,58.54
2023-04-13T09:30:46.986Z,58.88
2023-04-13T09:35:42.711Z,57.86
2023-04-13T09:38:11.646Z,57.82
2023-04-13T09:40:48.770Z,58.26
2023-04-13T09:43:15.551Z,58.27
2023-04-13T09:45:46.288Z,58.52
2023-04-13T09:48:23.071Z,58.51
2023-04-13T09:51:05.336Z,58.66
2023-04-13T09:53:47.422Z,59.07
2023-04-13T09:56:16.997Z,59.03
2023-04-13T09:58:46.065Z,58.51
2023-04-13T10:01:17.142Z,57.75
2023-04-13T10:03:44.674Z,57.10
2023-04-13T10:06:14.405Z,56.96
2023-04-13T10:08:43.771Z,56.83
2023-04-13T10:11:14.988Z,56.28
2023-04-13T10:13:52.420Z,55.85
2023-04-13T10:16:46.424Z,55.80
2023-04-13T10:19:17.020Z,55.37
2023-04-13T10:21:47.505Z,54.48
2023-04-13T10:24:15.239Z,54.67
2023-04-13T10:26:45.842Z,54.70
2023-04-13T10:29:14.649Z,54.42
2023-04-13T10:31:48.144Z,54.57
2023-04-13T10:34:27.150Z,54.32
2023-04-13T10:37:06.071Z,54.14
2023-04-13T10:39:35.735Z,54.09
2023-04-13T10:42:03.010Z,54.16
2023-04-13T10:44:51.706Z,53.77
2023-04-13T10:47:21.357Z,53.76
2023-04-13T10:49:50.460Z,53.85
2023-04-13T10:52:17.867Z,53.37
2023-04-13T10:54:45.078Z,53.03
2023-04-13T10:57:12.612Z,52.76
2023-04-13T10:59:59.302Z,52.68
2023-04-13T11:02:34.745Z,52.40
2023-04-13T11:05:02.048Z,51.46
2023-04-13T11:07:29.563Z,51.04
2023-04-13T11:12:28.377Z,50.65
2023-04-13T11:14:55.291Z,50.55
2023-04-13T11:17:22.378Z,49.60
2023-04-13T11:19:55.534Z,49.25
2023-04-13T11:22:24.402Z,49.10
2023-04-13T11:24:51.778Z,48.65
2023-04-13T11:27:26.982Z,48.62
2023-04-13T11:30:09.164Z,48.63
2023-04-13T11:32:41.525Z,48.74
2023-04-13T11:35:14.637Z,48.33
2023-04-13T11:37:49.245Z,48.73
2023-04-13T11:40:21.404Z,48.63
2023-04-13T11:42:51.579Z,48.79
2023-04-13T11:45:21.202Z,48.51
2023-04-13T11:47:50.668Z,48.59
2023-04-13T11:50:19.166Z,48.62
2023-04-13T11:52:47.598Z,48.38
2023-04-13T11:55:23.236Z,48.47
2023-04-13T11:57:53.314Z,48.71
2023-04-13T12:00:27.165Z,48.25
2023-04-13T12:05:30.102Z,48.22
2023-04-13T12:07:58.752Z,47.60
2023-04-13T12:10:38.491Z,47.73
2023-04-13T12:16:05.482Z,47.50
2023-04-13T12:18:49.483Z,47.96
2023-04-13T12:21:17.802Z,47.95
2023-04-13T12:23:59.821Z,48.20
2023-04-13T12:29:05.855Z,47.56
2023-04-13T12:31:35.353Z,47.08
2023-04-13T12:34:03.929Z,46.91
2023-04-13T12:36:31.737Z,46.61
2023-04-13T12:39:02.606Z,46.61
2023-04-13T12:41:29.476Z,46.67
2023-04-13T12:43:56.302Z,46.75
2023-04-13T12:46:24.928Z,46.71
2023-04-13T12:48:52.545Z,46.53
2023-04-13T12:51:19.391Z,46.54
2023-04-13T12:53:46.531Z,46.24
2023-04-13T12:56:13.457Z,46.17
2023-04-13T12:58:40.290Z,46.05
2023-04-13T13:01:07.205Z,45.99
2023-04-13T13:03:34.802Z,45.54
2023-04-13T13:06:01.620Z,45.56
2023-04-13T13:08:28.487Z,45.53
2023-04-13T13:10:55.949Z,45.44
2023-04-13T13:13:22.854Z,45.48
2023-04-13T13:15:49.670Z,45.63
2023-04-13T13:18:16.614Z,45.20
2023-04-13T13:20:45.592Z,45.03
2023-04-13T13:23:12.925Z,45.48
2023-04-13T13:25:56.949Z,45.43
2023-04-13T13:28:31.179Z,45.48
2023-04-13T13:30:57.937Z,45.05
2023-04-13T13:33:24.828Z,44.88
2023-04-13T13:35:52.140Z,44.73
2023-04-13T13:38:18.946Z,44.71
2023-04-13T13:40:47.048Z,44.73
2023-04-13T13:43:14.141Z,44.73
2023-04-13T13:45:41.420Z,44.79
2023-04-13T13:48:08.573Z,45.45
2023-04-13T13:50:35.451Z,45.70
2023-04-13T13:53:04.183Z,45.93
2023-04-13T13:55:32.223Z,46.25
2023-04-13T13:57:59.279Z,45.85
2023-04-13T14:00:27.079Z,45.52
2023-04-13T14:02:54.076Z,45.44
2023-04-13T14:05:22.553Z,45.36
2023-04-13T14:07:49.446Z,45.38
2023-04-13T14:10:16.632Z,45.46
2023-04-13T14:12:49.626Z,45.35
2023-04-13T14:15:17.155Z,45.33
2023-04-13T14:17:45.544Z,44.82
2023-04-13T14:20:17.158Z,44.49
2023-04-13T14:22:43.949Z,44.51
2023-04-13T14:25:11.145Z,44.18
2023-04-13T14:27:38.471Z,44.02
2023-04-13T14:30:06.054Z,43.57
2023-04-13T14:32:33.014Z,44.03
2023-04-13T14:35:00.594Z,43.80
2023-04-13T14:37:28.136Z,43.91
2023-04-13T14:39:55.151Z,43.61
2023-04-13T14:42:24.124Z,44.01
2023-04-13T14:44:54.115Z,43.72
2023-04-13T14:47:21.001Z,43.75
2023-04-13T14:49:47.990Z,43.91
2023-04-13T14:52:15.107Z,44.05
2023-04-13T14:54:42.412Z,43.48
2023-04-13T14:57:10.679Z,43.38
2023-04-13T14:59:38.141Z,43.36
2023-04-13T15:02:06.333Z,43.21
2023-04-13T15:04:33.285Z,43.26
2023-04-13T15:07:00.217Z,43.19
2023-04-13T15:09:27.338Z,43.51
2023-04-13T15:11:54.167Z,43.16
2023-04-13T15:14:21.141Z,43.04
2023-04-13T15:16:48.001Z,43.11
2023-04-13T15:19:14.802Z,43.29
2023-04-13T15:21:41.710Z,43.28
2023-04-13T15:24:09.969Z,43.52
2023-04-13T15:26:41.701Z,43.60
2023-04-13T15:29:10.880Z,43.42
2023-04-13T15:31:38.947Z,43.57
2023-04-13T15:34:08.433Z,43.65
2023-04-13T15:36:36.318Z,43.80
2023-04-13T15:39:04.529Z,43.84
2023-04-13T15:41:31.712Z,43.75
2023-04-13T15:44:00.181Z,44.19
2023-04-13T15:46:27.578Z,44.57
2023-04-13T15:48:55.291Z,44.61
2023-04-13T15:51:23.180Z,44.93
2023-04-13T15:53:49.970Z,44.90
2023-04-13T15:56:17.331Z,45.31
2023-04-13T15:58:44.404Z,45.51
2023-04-13T16:01:12.037Z,45.30
2023-04-13T16:03:40.320Z,45.64
2023-04-13T16:06:07.850Z,45.53
2023-04-13T16:08:34.786Z,45.77
2023-04-13T16:11:01.717Z,45.63
2023-04-13T16:13:45.048Z,45.80
2023-04-13T16:16:15.406Z,46.08
2023-04-13T16:18:42.235Z,46.20
2023-04-13T16:21:10.699Z,46.04
2023-04-13T16:23:38.363Z,45.63
2023-04-13T16:26:06.277Z,45.58
2023-04-13T16:28:34.444Z,45.18
2023-04-13T16:31:01.419Z,45.34
2023-04-13T16:33:29.664Z,45.76
2023-04-13T16:35:57.766Z,45.69
2023-04-13T16:38:24.540Z,45.65
2023-04-13T16:40:51.365Z,45.84
2023-04-13T16:43:18.157Z,45.71
2023-04-13T16:45:45.083Z,45.58
2023-04-13T16:48:11.988Z,45.61
2023-04-13T16:50:38.811Z,45.78
2023-04-13T16:53:05.609Z,45.63
2023-04-13T16:55:32.420Z,46.06
2023-04-13T16:57:59.155Z,46.06
2023-04-13T17:00:26.528Z,45.94
2023-04-13T17:02:53.428Z,45.81
2023-04-13T17:05:20.540Z,45.96
2023-04-13T17:07:48.055Z,46.13
2023-04-13T17:10:15.032Z,46.38
2023-04-13T17:12:41.900Z,46.31
2023-04-13T17:15:09.931Z,46.58
2023-04-13T17:17:37.892Z,46.21
2023-04-13T17:20:06.399Z,46.43
2023-04-13T17:22:33.290Z,46.66
2023-04-13T17:25:00.918Z,46.75
2023-04-13T17:27:27.739Z,46.90
2023-04-13T17:29:54.809Z,46.95
2023-04-13T17:32:22.270Z,47.06
2023-04-13T17:34:50.171Z,47.24
2023-04-13T17:37:17.746Z,47.36
2023-04-13T17:39:50.451Z,47.27
2023-04-13T17:42:17.967Z,47.66
2023-04-13T17:44:44.887Z,47.85
2023-04-13T17:47:11.745Z,47.94
2023-04-13T17:49:38.643Z,47.84
2023-04-13T17:52:05.774Z,47.93
2023-04-13T17:54:33.177Z,48.24
2023-04-13T17:57:01.027Z,48.17
2023-04-13T17:59:28.090Z,48.17
2023-04-13T18:01:55.973Z,48.40
2023-04-13T18:04:22.908Z,48.47
2023-04-13T18:06:49.816Z,48.38
2023-04-13T18:09:16.656Z,48.76
2023-04-13T18:11:43.397Z,48.50
2023-04-13T18:14:12.989Z,48.44
2023-04-13T18:16:39.872Z,48.33
2023-04-13T18:19:06.737Z,48.50
2023-04-13T18:21:33.590Z,48.42
2023-04-13T18:24:01.709Z,48.49
2023-04-13T18:26:29.071Z,48.51
2023-04-13T18:28:55.935Z,48.68
2023-04-13T18:31:23.229Z,48.59
2023-04-13T18:33:50.005Z,48.58
2023-04-13T18:36:17.949Z,48.71
2023-04-13T18:38:45.309Z,48.78
2023-04-13T18:41:12.677Z,48.77
2023-04-13T18:43:39.662Z,48.99
2023-04-13T18:46:07.611Z,48.96
2023-04-13T18:48:35.085Z,49.05
2023-04-13T18:51:03.244Z,49.13
2023-04-13T18:53:30.585Z,49.35
2023-04-13T18:55:58.580Z,49.33
2023-04-13T18:58:26.199Z,49.13
2023-04-13T19:00:53.019Z,49.54
2023-04-13T19:03:20.027Z,49.37
2023-04-13T19:05:47.176Z,49.41
2023-04-13T19:08:15.186Z,49.54
2023-04-13T19:10:43.239Z,49.39
2023-04-13T19:13:10.190Z,49.70
2023-04-13T19:15:36.996Z,49.73
2023-04-13T19:18:04.391Z,49.63
2023-04-13T19:20:31.477Z,49.73
2023-04-13T19:22:58.351Z,49.95
2023-04-13T19:25:25.323Z,49.80
2023-04-13T19:27:52.128Z,50.08
2023-04-13T19:30:19.502Z,50.14
2023-04-13T19:32:48.558Z,50.03
2023-04-13T19:35:15.934Z,50.21
2023-04-13T19:37:42.745Z,50.20
2023-04-13T19:40:13.132Z,50.40
2023-04-13T19:42:44.338Z,50.62
2023-04-13T19:45:15.008Z,50.83
2023-04-13T19:47:42.340Z,51.01
2023-04-13T19:50:12.302Z,51.17
2023-04-13T19:52:41.294Z,51.38
2023-04-13T19:55:10.464Z,51.27
2023-04-13T19:57:41.756Z,51.44
2023-04-13T20:00:16.943Z,51.39
2023-04-13T20:02:46.910Z,51.47
2023-04-13T20:05:14.843Z,51.55
2023-04-13T20:07:41.953Z,51.92
2023-04-13T20:10:12.052Z,51.59
2023-04-13T20:12:39.015Z,51.59
2023-04-13T20:15:06.970Z,51.69
2023-04-13T20:17:33.869Z,51.60
2023-04-13T20:20:00.756Z,51.73
2023-04-13T20:22:28.019Z,51.56
2023-04-13T20:24:55.186Z,51.89
2023-04-13T20:27:22.759Z,51.80
2023-04-13T20:29:51.125Z,51.92
2023-04-13T20:32:17.905Z,51.89
2023-04-13T20:34:45.197Z,51.77
2023-04-13T20:37:14.194Z,51.73
2023-04-13T20:39:50.497Z,51.86
2023-04-13T20:42:19.351Z,51.88
2023-04-13T20:44:46.970Z,51.93
2023-04-13T20:47:14.187Z,51.98
2023-04-13T20:49:51.702Z,52.13
2023-04-13T20:52:19.673Z,52.13
2023-04-13T20:54:46.422Z,52.24
2023-04-13T20:57:13.319Z,52.26
2023-04-13T20:59:40.696Z,52.20
2023-04-13T21:02:09.000Z,52.32
2023-04-13T21:04:36.401Z,52.38
2023-04-13T21:07:03.827Z,52.46
2023-04-13T21:09:30.971Z,52.20
2023-04-13T21:11:57.939Z,52.27
2023-04-13T21:14:25.419Z,52.23
2023-04-13T21:16:52.724Z,52.39
2023-04-13T21:19:19.659Z,52.31
2023-04-13T21:21:46.453Z,52.37
2023-04-13T21:24:13.510Z,52.42
2023-04-13T21:26:40.400Z,52.43
2023-04-13T21:29:07.557Z,52.42
2023-04-13T21:31:34.539Z,52.54
2023-04-13T21:34:03.453Z,52.35
2023-04-13T21:39:00.723Z,52.50
2023-04-13T21:41:27.693Z,52.68
2023-04-13T21:43:54.468Z,52.68
2023-04-13T21:46:21.351Z,52.89
2023-04-13T21:48:48.170Z,52.99
2023-04-13T21:51:14.945Z,52.93
2023-04-13T21:53:41.808Z,53.03
2023-04-13T21:56:08.683Z,52.89
2023-04-13T21:58:41.641Z,53.13
2023-04-13T22:01:09.376Z,52.97
2023-04-13T22:03:38.691Z,52.96
2023-04-13T22:06:08.960Z,53.37
2023-04-13T22:08:36.413Z,53.33
2023-04-13T22:11:03.608Z,53.33
2023-04-13T22:13:31.007Z,53.02
2023-04-13T22:15:58.050Z,53.09
2023-04-13T22:18:26.346Z,53.32
2023-04-13T22:20:53.217Z,53.28
2023-04-13T22:23:20.219Z,53.53
2023-04-13T22:25:58.895Z,53.31
2023-04-13T22:28:26.204Z,53.58
2023-04-13T22:30:53.235Z,53.53
2023-04-13T22:33:20.797Z,53.52
2023-04-13T22:35:50.694Z,53.65
2023-04-13T22:38:18.727Z,53.55
2023-04-13T22:40:45.824Z,53.20
2023-04-13T22:43:12.638Z,53.75
2023-04-13T22:45:39.469Z,53.54
2023-04-13T22:48:09.112Z,53.56
2023-04-13T22:50:39.931Z,53.96
2023-04-13T22:53:06.726Z,53.68
2023-04-13T22:55:33.514Z,53.50
2023-04-13T22:58:00.305Z,53.67
2023-04-13T23:00:27.075Z,53.99
2023-04-13T23:02:55.798Z,53.86
2023-04-13T23:05:23.188Z,53.95
2023-04-13T23:07:50.589Z,54.08
2023-04-13T23:10:17.741Z,53.67
2023-04-13T23:12:45.377Z,54.04
2023-04-13T23:15:13.361Z,54.12
2023-04-13T23:17:40.734Z,54.06
2023-04-13T23:20:08.224Z,53.76
2023-04-13T23:22:35.209Z,53.85
2023-04-13T23:25:01.972Z,53.82
2023-04-13T23:27:28.794Z,54.21
2023-04-13T23:29:55.629Z,54.26
2023-04-13T23:32:22.421Z,54.28
2023-04-13T23:34:50.799Z,54.09
2023-04-13T23:37:17.578Z,53.92
2023-04-13T23:39:44.340Z,54.28
2023-04-13T23:42:11.849Z,54.21
2023-04-13T23:44:38.674Z,54.17
2023-04-13T23:47:06.172Z,54.14
2023-04-13T23:49:32.924Z,54.32
2023-04-13T23:51:59.691Z,54.62
2023-04-13T23:54:26.538Z,54.80
2023-04-13T23:56:53.304Z,54.24
2023-04-13T23:59:20.534Z,54.58
